sensor_id;sensor_type;location;lat;lon;timestamp;pressure;altitude;pressure_sealevel;temperature;humidity
13867;BME280;7003;46.982;15.248;2023-05-08T00:02:04;97506.91;;;14.09;100.00
13867;BME280;7003;46.982;15.248;2023-05-08T00:04:35;97497.72;;;14.10;100.00
13867;BME280;7003;46.982;15.248;2023-05-08T00:07:02;97499.72;;;14.13;100.00
13867;BME280;7003;46.982;15.248;2023-05-08T00:09:30;97509.91;;;14.07;100.00
13867;BME280;7003;46.982;15.248;2023-05-08T00:11:57;97499.63;;;14.09;100.00
13867;BME280;7003;46.982;15.248;2023-05-08T00:14:27;97504.22;;;13.97;100.00
13867;BME280;7003;46.982;15.248;2023-05-08T00:16:56;97508.59;;;13.89;100.00
13867;BME280;7003;46.982;15.248;2023-05-08T00:19:23;97515.75;;;13.85;100.00
13867;BME280;7003;46.982;15.248;2023-05-08T00:21:52;97509.16;;;13.82;100.00
13867;BME280;7003;46.982;15.248;2023-05-08T00:24:19;97508.25;;;13.78;100.00
13867;BME280;7003;46.982;15.248;2023-05-08T00:26:46;97511.75;;;13.67;100.00
13867;BME280;7003;46.982;15.248;2023-05-08T00:29:13;97505.06;;;13.61;100.00
13867;BME280;7003;46.982;15.248;2023-05-08T00:31:40;97501.84;;;13.31;100.00
13867;BME280;7003;46.982;15.248;2023-05-08T00:34:07;97511.19;;;13.49;100.00
13867;BME280;7003;46.982;15.248;2023-05-08T00:36:36;97514.84;;;13.57;100.00
13867;BME280;7003;46.982;15.248;2023-05-08T00:39:05;97509.75;;;13.52;100.00
13867;BME280;7003;46.982;15.248;2023-05-08T00:41:35;97507.75;;;13.61;100.00
13867;BME280;7003;46.982;15.248;2023-05-08T00:44:02;97513.09;;;13.61;100.00
13867;BME280;7003;46.982;15.248;2023-05-08T00:46:32;97523.56;;;13.54;100.00
13867;BME280;7003;46.982;15.248;2023-05-08T00:48:59;97526.00;;;13.59;100.00
13867;BME280;7003;46.982;15.248;2023-05-08T00:51:29;97523.66;;;13.57;100.00
13867;BME280;7003;46.982;15.248;2023-05-08T00:53:59;97521.09;;;13.48;100.00
13867;BME280;7003;46.982;15.248;2023-05-08T00:56:28;97533.56;;;13.57;100.00
13867;BME280;7003;46.982;15.248;2023-05-08T00:59:00;97535.69;;;13.51;100.00
13867;BME280;7003;46.982;15.248;2023-05-08T01:01:28;97534.47;;;13.36;100.00
13867;BME280;7003;46.982;15.248;2023-05-08T01:03:57;97531.13;;;13.39;100.00
13867;BME280;7003;46.982;15.248;2023-05-08T01:06:25;97532.66;;;13.40;100.00
13867;BME280;7003;46.982;15.248;2023-05-08T01:08:52;97540.53;;;13.13;100.00
13867;BME280;7003;46.982;15.248;2023-05-08T01:11:30;97538.13;;;12.87;100.00
13867;BME280;7003;46.982;15.248;2023-05-08T01:14:05;97542.44;;;12.79;100.00
13867;BME280;7003;46.982;15.248;2023-05-08T01:16:38;97540.91;;;12.57;100.00
13867;BME280;7003;46.982;15.248;2023-05-08T01:19:41;97545.50;;;12.36;100.00
13867;BME280;7003;46.982;15.248;2023-05-08T01:22:23;97544.53;;;12.20;100.00
13867;BME280;7003;46.982;15.248;2023-05-08T01:31:08;97563.44;;;12.06;100.00
13867;BME280;7003;46.982;15.248;2023-05-08T01:33:45;97561.56;;;12.07;100.00
13867;BME280;7003;46.982;15.248;2023-05-08T01:36:19;97560.31;;;12.04;100.00
13867;BME280;7003;46.982;15.248;2023-05-08T01:38:55;97568.13;;;12.09;100.00
13867;BME280;7003;46.982;15.248;2023-05-08T01:41:29;97569.06;;;11.84;100.00
13867;BME280;7003;46.982;15.248;2023-05-08T01:44:09;97576.91;;;11.80;100.00
13867;BME280;7003;46.982;15.248;2023-05-08T01:46:41;97576.91;;;11.80;100.00
13867;BME280;7003;46.982;15.248;2023-05-08T01:49:21;97564.75;;;11.62;100.00
13867;BME280;7003;46.982;15.248;2023-05-08T01:51:56;97576.88;;;11.51;100.00
13867;BME280;7003;46.982;15.248;2023-05-08T01:54:29;97580.94;;;11.48;100.00
13867;BME280;7003;46.982;15.248;2023-05-08T01:57:03;97575.34;;;11.41;100.00
13867;BME280;7003;46.982;15.248;2023-05-08T01:59:37;97577.38;;;11.44;100.00
13867;BME280;7003;46.982;15.248;2023-05-08T02:02:09;97587.41;;;11.39;100.00
13867;BME280;7003;46.982;15.248;2023-05-08T02:04:38;97578.97;;;11.37;100.00
13867;BME280;7003;46.982;15.248;2023-05-08T02:07:07;97586.16;;;11.45;100.00
13867;BME280;7003;46.982;15.248;2023-05-08T02:09:37;97581.75;;;11.40;100.00
13867;BME280;7003;46.982;15.248;2023-05-08T02:12:07;97584.13;;;11.42;100.00
13867;BME280;7003;46.982;15.248;2023-05-08T02:14:36;97588.34;;;11.43;100.00
13867;BME280;7003;46.982;15.248;2023-05-08T02:17:09;97579.69;;;11.46;100.00
13867;BME280;7003;46.982;15.248;2023-05-08T02:19:39;97590.03;;;11.47;100.00
13867;BME280;7003;46.982;15.248;2023-05-08T02:22:09;97586.47;;;11.43;100.00
13867;BME280;7003;46.982;15.248;2023-05-08T02:24:39;97595.88;;;11.41;100.00
13867;BME280;7003;46.982;15.248;2023-05-08T02:27:08;97587.25;;;11.44;100.00
13867;BME280;7003;46.982;15.248;2023-05-08T02:29:39;97586.63;;;11.38;100.00
13867;BME280;7003;46.982;15.248;2023-05-08T02:32:09;97590.84;;;11.39;100.00
13867;BME280;7003;46.982;15.248;2023-05-08T02:34:38;97597.16;;;11.35;100.00
13867;BME280;7003;46.982;15.248;2023-05-08T02:37:06;97597.84;;;11.14;100.00
13867;BME280;7003;46.982;15.248;2023-05-08T02:39:36;97602.41;;;10.97;100.00
13867;BME280;7003;46.982;15.248;2023-05-08T02:42:05;97597.69;;;10.94;100.00
13867;BME280;7003;46.982;15.248;2023-05-08T02:44:32;97589.72;;;10.85;100.00
13867;BME280;7003;46.982;15.248;2023-05-08T02:47:03;97603.53;;;10.70;100.00
13867;BME280;7003;46.982;15.248;2023-05-08T02:49:44;97613.38;;;10.61;100.00
13867;BME280;7003;46.982;15.248;2023-05-08T02:52:16;97606.03;;;10.58;100.00
13867;BME280;7003;46.982;15.248;2023-05-08T02:54:51;97620.13;;;10.58;100.00
13867;BME280;7003;46.982;15.248;2023-05-08T02:57:29;97610.41;;;10.54;100.00
13867;BME280;7003;46.982;15.248;2023-05-08T03:00:03;97625.56;;;10.53;100.00
13867;BME280;7003;46.982;15.248;2023-05-08T03:02:35;97622.59;;;10.55;100.00
13867;BME280;7003;46.982;15.248;2023-05-08T03:05:13;97628.56;;;10.52;100.00
13867;BME280;7003;46.982;15.248;2023-05-08T03:07:42;97627.16;;;10.54;100.00
13867;BME280;7003;46.982;15.248;2023-05-08T03:10:14;97624.81;;;10.53;100.00
13867;BME280;7003;46.982;15.248;2023-05-08T03:12:45;97625.75;;;10.57;100.00
13867;BME280;7003;46.982;15.248;2023-05-08T03:15:20;97637.66;;;10.51;100.00
13867;BME280;7003;46.982;15.248;2023-05-08T03:17:52;97632.94;;;10.48;100.00
13867;BME280;7003;46.982;15.248;2023-05-08T03:20:23;97632.94;;;10.48;100.00
13867;BME280;7003;46.982;15.248;2023-05-08T03:22:54;97634.78;;;10.38;100.00
13867;BME280;7003;46.982;15.248;2023-05-08T03:25:22;97632.47;;;10.46;100.00
13867;BME280;7003;46.982;15.248;2023-05-08T03:27:52;97633.25;;;10.37;100.00
13867;BME280;7003;46.982;15.248;2023-05-08T03:30:21;97635.59;;;10.39;100.00
13867;BME280;7003;46.982;15.248;2023-05-08T03:32:53;97637.94;;;10.40;100.00
13867;BME280;7003;46.982;15.248;2023-05-08T03:35:26;97635.44;;;10.44;100.00
13867;BME280;7003;46.982;15.248;2023-05-08T03:37:54;97636.53;;;10.43;100.00
13867;BME280;7003;46.982;15.248;2023-05-08T03:40:22;97641.22;;;10.46;100.00
13867;BME280;7003;46.982;15.248;2023-05-08T03:42:53;97645.44;;;10.47;100.00
13867;BME280;7003;46.982;15.248;2023-05-08T03:45:24;97642.44;;;10.23;100.00
13867;BME280;7003;46.982;15.248;2023-05-08T03:47:54;97645.28;;;10.35;100.00
13867;BME280;7003;46.982;15.248;2023-05-08T03:50:25;97643.72;;;10.34;100.00
13867;BME280;7003;46.982;15.248;2023-05-08T03:52:55;97646.22;;;10.39;100.00
13867;BME280;7003;46.982;15.248;2023-05-08T03:55:24;97649.34;;;10.41;100.00
13867;BME280;7003;46.982;15.248;2023-05-08T03:57:58;97654.19;;;10.39;100.00
13867;BME280;7003;46.982;15.248;2023-05-08T04:00:38;97654.69;;;10.41;100.00
13867;BME280;7003;46.982;15.248;2023-05-08T04:03:19;97664.53;;;10.40;100.00
13867;BME280;7003;46.982;15.248;2023-05-08T04:05:58;97672.50;;;10.32;100.00
13867;BME280;7003;46.982;15.248;2023-05-08T04:08:28;97671.56;;;10.28;100.00
13867;BME280;7003;46.982;15.248;2023-05-08T04:11:07;97683.75;;;10.29;100.00
13867;BME280;7003;46.982;15.248;2023-05-08T04:13:44;97679.22;;;10.29;100.00
13867;BME280;7003;46.982;15.248;2023-05-08T04:16:19;97672.41;;;10.06;100.00
13867;BME280;7003;46.982;15.248;2023-05-08T04:18:57;97680.44;;;10.23;100.00
13867;BME280;7003;46.982;15.248;2023-05-08T04:21:35;97688.91;;;10.25;100.00
13867;BME280;7003;46.982;15.248;2023-05-08T04:24:13;97687.53;;;10.36;100.00
13867;BME280;7003;46.982;15.248;2023-05-08T04:26:45;97690.97;;;10.46;100.00
13867;BME280;7003;46.982;15.248;2023-05-08T04:29:13;97696.44;;;10.40;100.00
13867;BME280;7003;46.982;15.248;2023-05-08T04:31:41;97701.44;;;10.33;100.00
13867;BME280;7003;46.982;15.248;2023-05-08T04:34:10;97706.59;;;10.38;100.00
13867;BME280;7003;46.982;15.248;2023-05-08T04:36:40;97703.94;;;10.38;100.00
13867;BME280;7003;46.982;15.248;2023-05-08T04:39:10;97709.75;;;10.40;100.00
13867;BME280;7003;46.982;15.248;2023-05-08T04:41:38;97716.94;;;10.40;100.00
13867;BME280;7003;46.982;15.248;2023-05-08T04:44:06;97716.31;;;10.43;100.00
13867;BME280;7003;46.982;15.248;2023-05-08T04:46:34;97716.31;;;10.34;100.00
13867;BME280;7003;46.982;15.248;2023-05-08T04:49:02;97726.44;;;10.32;100.00
13867;BME280;7003;46.982;15.248;2023-05-08T04:51:29;97730.97;;;10.32;100.00
13867;BME280;7003;46.982;15.248;2023-05-08T04:53:59;97724.75;;;10.36;100.00
13867;BME280;7003;46.982;15.248;2023-05-08T04:56:29;97730.19;;;10.31;100.00
13867;BME280;7003;46.982;15.248;2023-05-08T04:58:59;97732.25;;;10.34;100.00
13867;BME280;7003;46.982;15.248;2023-05-08T05:01:30;97730.72;;;10.42;100.00
13867;BME280;7003;46.982;15.248;2023-05-08T05:03:57;97734.13;;;10.34;100.00
13867;BME280;7003;46.982;15.248;2023-05-08T05:06:27;97729.59;;;10.34;100.00
13867;BME280;7003;46.982;15.248;2023-05-08T05:08:57;97733.53;;;10.37;100.00
13867;BME280;7003;46.982;15.248;2023-05-08T05:11:28;97740.06;;;10.31;100.00
13867;BME280;7003;46.982;15.248;2023-05-08T05:13:56;97740.38;;;10.29;100.00
13867;BME280;7003;46.982;15.248;2023-05-08T05:16:26;97741.50;;;10.37;100.00
13867;BME280;7003;46.982;15.248;2023-05-08T05:18:56;97742.59;;;10.36;100.00
13867;BME280;7003;46.982;15.248;2023-05-08T05:21:24;97743.66;;;10.26;100.00
13867;BME280;7003;46.982;15.248;2023-05-08T05:23:55;97743.97;;;10.33;100.00
13867;BME280;7003;46.982;15.248;2023-05-08T05:26:22;97739.91;;;10.27;100.00
13867;BME280;7003;46.982;15.248;2023-05-08T05:28:51;97737.72;;;10.29;100.00
13867;BME280;7003;46.982;15.248;2023-05-08T05:31:20;97738.09;;;10.45;100.00
13867;BME280;7003;46.982;15.248;2023-05-08T05:33:50;97742.88;;;10.34;100.00
13867;BME280;7003;46.982;15.248;2023-05-08T05:36:18;97737.56;;;10.34;100.00
13867;BME280;7003;46.982;15.248;2023-05-08T05:38:48;97741.03;;;10.35;100.00
13867;BME280;7003;46.982;15.248;2023-05-08T05:41:16;97740.72;;;10.36;100.00
13867;BME280;7003;46.982;15.248;2023-05-08T05:43:45;97744.94;;;10.37;100.00
13867;BME280;7003;46.982;15.248;2023-05-08T05:46:14;97741.66;;;10.40;100.00
13867;BME280;7003;46.982;15.248;2023-05-08T05:48:42;97735.41;;;10.36;100.00
13867;BME280;7003;46.982;15.248;2023-05-08T05:51:10;97735.25;;;10.41;100.00
13867;BME280;7003;46.982;15.248;2023-05-08T05:53:40;97745.56;;;10.34;100.00
13867;BME280;7003;46.982;15.248;2023-05-08T05:56:08;97741.91;;;10.22;100.00
13867;BME280;7003;46.982;15.248;2023-05-08T05:58:36;97743.94;;;10.25;100.00
13867;BME280;7003;46.982;15.248;2023-05-08T06:01:08;97741.00;;;10.26;100.00
13867;BME280;7003;46.982;15.248;2023-05-08T06:03:39;97745.03;;;10.24;100.00
13867;BME280;7003;46.982;15.248;2023-05-08T06:06:07;97742.06;;;10.25;100.00
13867;BME280;7003;46.982;15.248;2023-05-08T06:08:35;97748.75;;;10.14;100.00
13867;BME280;7003;46.982;15.248;2023-05-08T06:11:02;97752.94;;;10.15;100.00
13867;BME280;7003;46.982;15.248;2023-05-08T06:13:30;97750.81;;;10.17;100.00
13867;BME280;7003;46.982;15.248;2023-05-08T06:16:00;97758.97;;;10.21;100.00
13867;BME280;7003;46.982;15.248;2023-05-08T06:18:28;97753.78;;;10.24;100.00
13867;BME280;7003;46.982;15.248;2023-05-08T06:20:57;97758.19;;;10.20;100.00
13867;BME280;7003;46.982;15.248;2023-05-08T06:23:28;97752.84;;;10.20;100.00
13867;BME280;7003;46.982;15.248;2023-05-08T06:25:56;97759.97;;;10.11;100.00
13867;BME280;7003;46.982;15.248;2023-05-08T06:28:25;97766.19;;;9.98;100.00
13867;BME280;7003;46.982;15.248;2023-05-08T06:30:53;97761.38;;;9.78;100.00
13867;BME280;7003;46.982;15.248;2023-05-08T06:33:23;97762.00;;;9.75;100.00
13867;BME280;7003;46.982;15.248;2023-05-08T06:35:54;97757.88;;;9.69;100.00
13867;BME280;7003;46.982;15.248;2023-05-08T06:38:26;97768.13;;;9.61;100.00
13867;BME280;7003;46.982;15.248;2023-05-08T06:40:53;97772.06;;;9.64;100.00
13867;BME280;7003;46.982;15.248;2023-05-08T06:43:21;97764.69;;;9.61;100.00
13867;BME280;7003;46.982;15.248;2023-05-08T06:45:51;97772.09;;;9.42;100.00
13867;BME280;7003;46.982;15.248;2023-05-08T06:48:19;97765.41;;;9.44;100.00
13867;BME280;7003;46.982;15.248;2023-05-08T06:50:46;97763.03;;;9.43;100.00
13867;BME280;7003;46.982;15.248;2023-05-08T06:53:17;97768.44;;;9.38;100.00
13867;BME280;7003;46.982;15.248;2023-05-08T06:55:48;97770.34;;;9.59;100.00
13867;BME280;7003;46.982;15.248;2023-05-08T06:58:16;97776.47;;;9.69;100.00
13867;BME280;7003;46.982;15.248;2023-05-08T07:00:47;97786.56;;;9.58;100.00
13867;BME280;7003;46.982;15.248;2023-05-08T07:03:14;97782.50;;;9.60;100.00
13867;BME280;7003;46.982;15.248;2023-05-08T07:05:42;97776.72;;;9.58;100.00
13867;BME280;7003;46.982;15.248;2023-05-08T07:08:09;97789.00;;;9.77;100.00
13867;BME280;7003;46.982;15.248;2023-05-08T07:10:50;97790.84;;;9.68;100.00
13867;BME280;7003;46.982;15.248;2023-05-08T07:13:18;97792.59;;;9.72;100.00
13867;BME280;7003;46.982;15.248;2023-05-08T07:15:49;97785.13;;;9.74;100.00
13867;BME280;7003;46.982;15.248;2023-05-08T07:18:18;97786.25;;;9.82;100.00
13867;BME280;7003;46.982;15.248;2023-05-08T07:20:46;97790.59;;;9.78;100.00
13867;BME280;7003;46.982;15.248;2023-05-08T07:23:14;97789.00;;;9.77;100.00
13867;BME280;7003;46.982;15.248;2023-05-08T07:25:42;97786.88;;;9.56;100.00
13867;BME280;7003;46.982;15.248;2023-05-08T07:28:11;97798.22;;;9.48;100.00
13867;BME280;7003;46.982;15.248;2023-05-08T07:30:41;97798.06;;;9.76;100.00
13867;BME280;7003;46.982;15.248;2023-05-08T07:33:09;97799.59;;;9.90;100.00
13867;BME280;7003;46.982;15.248;2023-05-08T07:35:39;97792.38;;;10.13;100.00
13867;BME280;7003;46.982;15.248;2023-05-08T07:38:07;97799.84;;;10.11;100.00
13867;BME280;7003;46.982;15.248;2023-05-08T07:40:34;97799.38;;;10.09;100.00
13867;BME280;7003;46.982;15.248;2023-05-08T07:43:02;97795.91;;;10.09;100.00
13867;BME280;7003;46.982;15.248;2023-05-08T07:45:31;97800.28;;;10.04;100.00
13867;BME280;7003;46.982;15.248;2023-05-08T07:47:59;97800.34;;;10.13;100.00
13867;BME280;7003;46.982;15.248;2023-05-08T07:50:30;97806.25;;;10.10;100.00
13867;BME280;7003;46.982;15.248;2023-05-08T07:53:00;97812.69;;;9.64;100.00
13867;BME280;7003;46.982;15.248;2023-05-08T07:55:29;97809.59;;;9.93;100.00
13867;BME280;7003;46.982;15.248;2023-05-08T07:57:57;97804.47;;;9.97;100.00
13867;BME280;7003;46.982;15.248;2023-05-08T08:00:27;97805.22;;;9.89;100.00
13867;BME280;7003;46.982;15.248;2023-05-08T08:02:56;97811.31;;;9.67;100.00
13867;BME280;7003;46.982;15.248;2023-05-08T08:05:24;97817.34;;;9.81;100.00
13867;BME280;7003;46.982;15.248;2023-05-08T08:07:54;97809.00;;;9.96;100.00
13867;BME280;7003;46.982;15.248;2023-05-08T08:10:24;97815.25;;;10.00;100.00
13867;BME280;7003;46.982;15.248;2023-05-08T08:12:52;97818.16;;;10.13;100.00
13867;BME280;7003;46.982;15.248;2023-05-08T08:15:19;97808.69;;;9.98;100.00
13867;BME280;7003;46.982;15.248;2023-05-08T08:17:47;97813.13;;;9.80;100.00
13867;BME280;7003;46.982;15.248;2023-05-08T08:20:17;97811.44;;;10.15;100.00
13867;BME280;7003;46.982;15.248;2023-05-08T08:22:44;97816.88;;;10.10;100.00
13867;BME280;7003;46.982;15.248;2023-05-08T08:25:14;97819.03;;;10.30;100.00
13867;BME280;7003;46.982;15.248;2023-05-08T08:27:45;97817.88;;;10.54;100.00
13867;BME280;7003;46.982;15.248;2023-05-08T08:30:13;97819.97;;;10.26;100.00
13867;BME280;7003;46.982;15.248;2023-05-08T08:32:43;97814.88;;;10.16;100.00
13867;BME280;7003;46.982;15.248;2023-05-08T08:35:12;97817.59;;;10.24;100.00
13867;BME280;7003;46.982;15.248;2023-05-08T08:37:42;97813.34;;;9.92;100.00
13867;BME280;7003;46.982;15.248;2023-05-08T08:40:12;97818.06;;;9.95;100.00
13867;BME280;7003;46.982;15.248;2023-05-08T08:42:39;97814.59;;;10.17;100.00
13867;BME280;7003;46.982;15.248;2023-05-08T08:45:07;97815.69;;;9.94;100.00
13867;BME280;7003;46.982;15.248;2023-05-08T08:47:35;97819.81;;;9.78;100.00
13867;BME280;7003;46.982;15.248;2023-05-08T08:50:07;97817.56;;;9.93;100.00
13867;BME280;7003;46.982;15.248;2023-05-08T08:52:38;97814.81;;;10.07;100.00
13867;BME280;7003;46.982;15.248;2023-05-08T08:55:11;97817.44;;;10.21;100.00
13867;BME280;7003;46.982;15.248;2023-05-08T08:57:53;97824.84;;;10.32;100.00
13867;BME280;7003;46.982;15.248;2023-05-08T09:00:22;97812.72;;;10.49;100.00
13867;BME280;7003;46.982;15.248;2023-05-08T09:02:53;97815.38;;;10.49;100.00
13867;BME280;7003;46.982;15.248;2023-05-08T09:05:21;97816.22;;;10.66;100.00
13867;BME280;7003;46.982;15.248;2023-05-08T09:07:53;97813.59;;;10.75;100.00
13867;BME280;7003;46.982;15.248;2023-05-08T09:10:25;97815.78;;;10.82;100.00
13867;BME280;7003;46.982;15.248;2023-05-08T09:12:52;97825.81;;;10.93;100.00
13867;BME280;7003;46.982;15.248;2023-05-08T09:15:20;97819.50;;;10.72;100.00
13867;BME280;7003;46.982;15.248;2023-05-08T09:17:48;97815.91;;;10.76;100.00
13867;BME280;7003;46.982;15.248;2023-05-08T09:20:18;97824.88;;;10.89;100.00
13867;BME280;7003;46.982;15.248;2023-05-08T09:22:46;97827.31;;;10.60;100.00
13867;BME280;7003;46.982;15.248;2023-05-08T09:25:14;97831.16;;;10.45;100.00
13867;BME280;7003;46.982;15.248;2023-05-08T09:27:45;97837.88;;;10.43;100.00
13867;BME280;7003;46.982;15.248;2023-05-08T09:30:15;97835.63;;;10.27;100.00
13867;BME280;7003;46.982;15.248;2023-05-08T09:32:45;97819.78;;;10.22;100.00
13867;BME280;7003;46.982;15.248;2023-05-08T09:35:12;97830.00;;;10.29;100.00
13867;BME280;7003;46.982;15.248;2023-05-08T09:37:41;97827.72;;;10.53;100.00
13867;BME280;7003;46.982;15.248;2023-05-08T09:40:17;97830.16;;;10.72;100.00
13867;BME280;7003;46.982;15.248;2023-05-08T09:42:48;97831.56;;;10.78;100.00
13867;BME280;7003;46.982;15.248;2023-05-08T09:45:26;97827.81;;;10.79;100.00
13867;BME280;7003;46.982;15.248;2023-05-08T09:47:54;97828.78;;;10.83;100.00
13867;BME280;7003;46.982;15.248;2023-05-08T09:50:22;97834.28;;;10.95;100.00
13867;BME280;7003;46.982;15.248;2023-05-08T09:52:52;97834.78;;;11.23;100.00
13867;BME280;7003;46.982;15.248;2023-05-08T09:55:20;97824.63;;;11.42;100.00
13867;BME280;7003;46.982;15.248;2023-05-08T09:57:53;97828.84;;;11.26;100.00
13867;BME280;7003;46.982;15.248;2023-05-08T10:00:23;97830.66;;;10.83;100.00
13867;BME280;7003;46.982;15.248;2023-05-08T10:02:55;97837.75;;;11.04;100.00
13867;BME280;7003;46.982;15.248;2023-05-08T10:05:27;97837.56;;;11.01;100.00
13867;BME280;7003;46.982;15.248;2023-05-08T10:07:59;97844.16;;;11.03;100.00
13867;BME280;7003;46.982;15.248;2023-05-08T10:10:46;97835.25;;;11.16;100.00
13867;BME280;7003;46.982;15.248;2023-05-08T10:13:17;97834.03;;;11.23;100.00
13867;BME280;7003;46.982;15.248;2023-05-08T10:15:45;97834.78;;;11.32;100.00
13867;BME280;7003;46.982;15.248;2023-05-08T10:18:23;97840.13;;;11.14;100.00
13867;BME280;7003;46.982;15.248;2023-05-08T10:21:01;97843.50;;;10.89;100.00
13867;BME280;7003;46.982;15.248;2023-05-08T10:23:33;97832.44;;;11.13;100.00
13867;BME280;7003;46.982;15.248;2023-05-08T10:26:13;97837.44;;;11.23;100.00
13867;BME280;7003;46.982;15.248;2023-05-08T10:28:49;97837.47;;;11.32;100.00
13867;BME280;7003;46.982;15.248;2023-05-08T10:31:17;97835.88;;;11.31;100.00
13867;BME280;7003;46.982;15.248;2023-05-08T10:33:48;97846.72;;;11.34;100.00
13867;BME280;7003;46.982;15.248;2023-05-08T10:36:20;97834.19;;;11.35;100.00
13867;BME280;7003;46.982;15.248;2023-05-08T10:38:51;97836.53;;;11.36;100.00
13867;BME280;7003;46.982;15.248;2023-05-08T10:41:22;97831.22;;;11.36;100.00
13867;BME280;7003;46.982;15.248;2023-05-08T10:43:52;97837.31;;;11.37;100.00
13867;BME280;7003;46.982;15.248;2023-05-08T10:46:29;97836.22;;;11.38;100.00
13867;BME280;7003;46.982;15.248;2023-05-08T10:49:05;97833.84;;;11.19;100.00
13867;BME280;7003;46.982;15.248;2023-05-08T10:51:46;97839.34;;;11.23;100.00
13867;BME280;7003;46.982;15.248;2023-05-08T10:54:25;97836.66;;;11.31;100.00
13867;BME280;7003;46.982;15.248;2023-05-08T10:57:07;97833.88;;;11.36;100.00
13867;BME280;7003;46.982;15.248;2023-05-08T10:59:44;97843.25;;;11.34;100.00
13867;BME280;7003;46.982;15.248;2023-05-08T11:02:15;97841.22;;;11.31;100.00
13867;BME280;7003;46.982;15.248;2023-05-08T11:04:42;97841.38;;;11.26;100.00
13867;BME280;7003;46.982;15.248;2023-05-08T11:07:10;97846.22;;;11.24;100.00
13867;BME280;7003;46.982;15.248;2023-05-08T11:09:46;97852.97;;;11.21;100.00
13867;BME280;7003;46.982;15.248;2023-05-08T11:12:20;97842.31;;;11.21;100.00
13867;BME280;7003;46.982;15.248;2023-05-08T11:15:01;97842.16;;;11.35;100.00
13867;BME280;7003;46.982;15.248;2023-05-08T11:17:30;97839.19;;;11.36;100.00
13867;BME280;7003;46.982;15.248;2023-05-08T11:20:01;97841.81;;;11.02;100.00
13867;BME280;7003;46.982;15.248;2023-05-08T11:22:31;97841.69;;;11.07;100.00
13867;BME280;7003;46.982;15.248;2023-05-08T11:25:04;97846.66;;;11.08;100.00
13867;BME280;7003;46.982;15.248;2023-05-08T11:30:36;97842.16;;;11.17;100.00
13867;BME280;7003;46.982;15.248;2023-05-08T11:33:22;97840.75;;;11.29;100.00
13867;BME280;7003;46.982;15.248;2023-05-08T11:35:56;97839.34;;;11.23;100.00
13867;BME280;7003;46.982;15.248;2023-05-08T11:38:29;97842.78;;;11.14;100.00
13867;BME280;7003;46.982;15.248;2023-05-08T11:41:00;97841.84;;;11.19;100.00
13867;BME280;7003;46.982;15.248;2023-05-08T11:44:03;97842.78;;;11.14;100.00
13867;BME280;7003;46.982;15.248;2023-05-08T11:46:48;97839.97;;;11.19;100.00
13867;BME280;7003;46.982;15.248;2023-05-08T11:49:17;97848.41;;;11.04;100.00
13867;BME280;7003;46.982;15.248;2023-05-08T11:51:47;97853.88;;;11.16;100.00
13867;BME280;7003;46.982;15.248;2023-05-08T11:54:23;97847.75;;;11.07;100.00
13867;BME280;7003;46.982;15.248;2023-05-08T11:56:52;97850.63;;;11.19;100.00
13867;BME280;7003;46.982;15.248;2023-05-08T11:59:20;97849.06;;;11.27;100.00
13867;BME280;7003;46.982;15.248;2023-05-08T12:01:49;97852.03;;;11.34;100.00
13867;BME280;7003;46.982;15.248;2023-05-08T12:04:19;97855.00;;;11.33;100.00
13867;BME280;7003;46.982;15.248;2023-05-08T12:06:56;97848.44;;;11.39;100.00
13867;BME280;7003;46.982;15.248;2023-05-08T12:09:26;97848.75;;;11.37;100.00
13867;BME280;7003;46.982;15.248;2023-05-08T12:11:57;97861.91;;;11.34;100.00
13867;BME280;7003;46.982;15.248;2023-05-08T12:14:24;97870.69;;;11.43;100.00
13867;BME280;7003;46.982;15.248;2023-05-08T12:16:53;97866.63;;;11.54;100.00
13867;BME280;7003;46.982;15.248;2023-05-08T12:19:21;97857.53;;;11.46;100.00
13867;BME280;7003;46.982;15.248;2023-05-08T12:21:49;97865.84;;;11.53;100.00
13867;BME280;7003;46.982;15.248;2023-05-08T12:24:17;97859.41;;;11.46;100.00
13867;BME280;7003;46.982;15.248;2023-05-08T12:26:48;97860.81;;;11.26;100.00
13867;BME280;7003;46.982;15.248;2023-05-08T12:29:17;97864.59;;;11.42;100.00
13867;BME280;7003;46.982;15.248;2023-05-08T12:31:48;97865.84;;;11.36;100.00
13867;BME280;7003;46.982;15.248;2023-05-08T12:34:19;97863.50;;;11.43;100.00
13867;BME280;7003;46.982;15.248;2023-05-08T12:36:47;97863.00;;;11.41;100.00
13867;BME280;7003;46.982;15.248;2023-05-08T12:39:17;97858.97;;;11.52;100.00
13867;BME280;7003;46.982;15.248;2023-05-08T12:41:48;97860.06;;;11.51;100.00
13867;BME280;7003;46.982;15.248;2023-05-08T12:44:21;97866.63;;;11.45;100.00
13867;BME280;7003;46.982;15.248;2023-05-08T12:46:53;97858.78;;;11.40;100.00
13867;BME280;7003;46.982;15.248;2023-05-08T12:49:29;97855.31;;;11.40;100.00
13867;BME280;7003;46.982;15.248;2023-05-08T12:52:02;97855.31;;;11.40;100.00
13867;BME280;7003;46.982;15.248;2023-05-08T12:54:33;97851.09;;;11.30;100.00
13867;BME280;7003;46.982;15.248;2023-05-08T12:57:09;97842.78;;;11.32;100.00
13867;BME280;7003;46.982;15.248;2023-05-08T12:59:37;97848.59;;;11.34;100.00
13867;BME280;7003;46.982;15.248;2023-05-08T13:02:12;97843.88;;;11.39;100.00
13867;BME280;7003;46.982;15.248;2023-05-08T13:04:41;97846.72;;;11.51;100.00
13867;BME280;7003;46.982;15.248;2023-05-08T13:07:11;97843.09;;;11.47;100.00
13867;BME280;7003;46.982;15.248;2023-05-08T13:09:39;97839.16;;;11.10;100.00
13867;BME280;7003;46.982;15.248;2023-05-08T13:12:21;97840.09;;;10.97;100.00
13867;BME280;7003;46.982;15.248;2023-05-08T13:14:51;97840.38;;;10.96;100.00
13867;BME280;7003;46.982;15.248;2023-05-08T13:17:19;97838.34;;;11.01;100.00
13867;BME280;7003;46.982;15.248;2023-05-08T13:19:50;97842.47;;;11.25;100.00